CDT,Max TemperatureF,Mean TemperatureF,Min TemperatureF,Max Dew PointF,MeanDew PointF,Min DewpointF,Max Humidity, Mean Humidity, Min Humidity, Max Sea Level PressureIn, Mean Sea Level PressureIn, Min Sea Level PressureIn, Max VisibilityMiles, Mean VisibilityMiles, Min VisibilityMiles, Max Wind SpeedMPH, Mean Wind SpeedMPH, Max Gust SpeedMPH,PrecipitationIn, CloudCover, Events, WindDirDegrees
2012-9-1,92,84,76,77,75,73,94,77,60,30.14,30.08,30.04,10,10,8,17,7,23,0.02,4,,190
2012-9-2,93,84,75,77,76,73,94,75,56,30.09,30.02,29.94,10,10,6,13,6,22,T,4,Rain,212
2012-9-3,95,87,78,79,76,75,97,77,56,30.01,29.95,29.90,10,9,6,13,5,18,0.00,2,,227
2012-9-4,96,87,77,79,77,75,94,74,53,29.96,29.92,29.86,10,9,5,12,5,16,0.00,2,,254
2012-9-5,96,85,73,78,75,72,100,74,48,29.93,29.88,29.84,10,10,5,9,3,13,0.00,0,,222
2012-9-6,96,84,72,77,74,72,100,75,49,29.96,29.90,29.86,10,6,1,10,2,13,0.00,0,Rain,150
2012-9-7,95,83,71,77,73,70,100,72,43,29.95,29.90,29.81,10,6,0,9,4,13,0.00,0,Fog-Rain,136
2012-9-8,79,68,56,75,69,57,94,78,62,30.04,29.92,29.83,10,9,2,20,7,26,0.09,5,Rain,352
2012-9-9,83,67,50,61,55,48,100,70,40,30.12,30.06,30.02,10,8,0,12,3,22,0.00,0,Fog,4
2012-9-10,87,69,51,64,55,50,100,69,37,30.17,30.10,30.07,10,5,0,12,2,20,0.00,0,Fog,55
2012-9-11,86,70,54,64,57,53,100,70,40,30.19,30.12,30.08,10,5,0,14,4,17,0.00,0,Fog,121
2012-9-12,90,75,59,70,65,59,100,73,46,30.19,30.13,30.07,10,10,10,16,6,21,0.00,3,Thunderstorm,121
2012-9-13,89,79,69,72,70,68,100,77,53,30.19,30.15,30.09,10,9,2,16,4,20,0.07,3,Rain-Thunderstorm,95
2012-9-14,90,77,64,71,67,64,100,75,50,30.21,30.16,30.11,10,6,0,10,3,14,0.00,1,Fog,77
2012-9-15,90,75,60,67,64,60,100,70,40,30.18,30.13,30.06,10,8,2,9,3,15,0.00,1,,77
2012-9-16,89,76,63,72,65,62,100,73,46,30.08,30.03,29.95,10,6,0,9,2,13,0.00,2,Fog,70
2012-9-17,76,72,67,73,71,67,100,94,87,29.95,29.82,29.74,10,7,1,10,3,13,0.64,7,Rain,72
2012-9-18,78,69,60,70,67,52,100,84,67,30.08,29.90,29.77,10,8,2,16,6,20,0.70,6,Rain,338
2012-9-19,77,62,47,55,50,47,100,68,36,30.18,30.12,30.08,10,10,5,13,3,21,0.00,0,,29
2012-9-20,82,64,45,59,49,45,100,67,33,30.15,30.09,30.04,10,5,0,7,1,10,0.00,0,Fog,60
2012-9-21,85,67,48,65,54,46,100,69,37,30.11,30.04,29.98,10,6,0,12,2,14,0.00,0,Fog,158
2012-9-22,91,73,55,68,60,55,100,72,44,30.12,30.06,30.00,10,5,0,10,3,16,0.00,0,Fog,253
2012-9-23,89,74,59,69,62,59,100,73,46,30.20,30.14,30.09,10,4,0,12,4,16,0.00,0,Fog,6
2012-9-24,87,75,62,68,60,52,87,67,46,30.23,30.16,30.08,10,10,10,10,5,13,0.00,0,,89
2012-9-25,90,79,67,71,68,65,87,70,52,30.13,30.09,30.04,10,9,7,12,6,21,0.00,0,,167
2012-9-26,87,73,59,70,63,60,100,70,40,30.16,30.10,30.06,10,8,2,12,4,15,0.00,0,,155
2012-9-27,89,74,58,71,61,56,100,73,46,30.18,30.12,30.05,10,5,0,12,2,16,0.00,0,Fog,143
2012-9-28,90,75,60,72,64,59,100,72,44,30.12,30.06,29.99,10,6,0,10,2,13,0.00,1,Fog,82
2012-9-29,80,74,68,74,70,67,100,87,74,30.02,29.93,29.87,10,6,2,16,4,23,0.66,6,Rain,99
2012-9-30,80,70,60,74,66,59,100,93,85,29.88,29.69,29.53,10,6,1,23,9,31,2.30,8,Rain-Thunderstorm,63